PWSweather.com
Personal Weather Stations
Station Observations
IBRABANT12
Leuven, BlandenBE 3052

LeuvenBlandenBE 3052

Lat: 50.8252218, Lon: 4.709682799999996

Elevation: 193

Station Type: Davis Vantage Vue

http://www.weerstationblanden.be

Latest ConditionsUpdated 11:00:18 PM GMT+01:01 Friday, Mar 27, 2015
Currently Today's Max Today's Min Today's Average
Temperature 35.9°F2.2°C 50.8°F10.4°C 35.9°F2.2°C 43.9°F6.6°C
Dew Point 32.7°F0.4°C 40.5°F4.7°C 32.7°F0.4°C 36.7°F2.6°C
Winds Calm Calm 11.8 mph WSW19.0 kmh WSW - 5.4 mph 8.7 kmh
Wind Gusts -- 18.0 mph29.0 kmh - -
Humidity 88% 88% 56% 76%
Pressure 30.16 in1021.3 mb 30.17 in1021.7 mb 29.80 in1009.1 mb -
Hour Temp Dew Point Humidity Winds Wind Gusts Pressure Precip Precip Rate Daily Precip Total
11:00 PM 35.9°F2.2°C 32.7°F0.4°C 88% Calm Calm -- 30.16 in1021.3 mb - 0.00 in0.0 mm 0.00 in0.0 mm
10:50 PM 36.1°F2.3°C 32.9°F0.5°C 88% 1.0 mph E1.6 kmh E 1.0 mph1.6 kmh 30.16 in1021.3 mb - 0.00 in0.0 mm 0.00 in0.0 mm
10:40 PM 36.5°F2.5°C 32.9°F0.5°C 87% Calm Calm -- 30.17 in1021.7 mb - 0.00 in0.0 mm 0.00 in0.0 mm
10:30 PM 36.6°F2.6°C 33.1°F0.6°C 87% 1.0 mph E1.6 kmh E 1.0 mph1.6 kmh 30.16 in1021.3 mb - 0.00 in0.0 mm 0.00 in0.0 mm
10:20 PM 36.7°F2.6°C 33.2°F0.7°C 87% Calm Calm -- 30.17 in1021.7 mb - 0.00 in0.0 mm 0.00 in0.0 mm
10:10 PM 36.7°F2.6°C 33.2°F0.7°C 87% Calm Calm -- 30.16 in1021.3 mb - 0.00 in0.0 mm 0.00 in0.0 mm
10:00 PM 36.8°F2.7°C 33.0°F0.6°C 86% Calm Calm 1.0 mph1.6 kmh 30.16 in1021.3 mb - 0.00 in0.0 mm 0.00 in0.0 mm
09:50 PM 37.0°F2.8°C 32.9°F0.5°C 85% Calm Calm -- 30.16 in1021.3 mb - 0.00 in0.0 mm 0.00 in0.0 mm
09:40 PM 37.6°F3.1°C 33.2°F0.7°C 84% Calm Calm -- 30.16 in1021.3 mb - 0.00 in0.0 mm 0.00 in0.0 mm
09:30 PM 38.1°F3.4°C 33.4°F0.8°C 83% Calm Calm -- 30.16 in1021.3 mb - 0.00 in0.0 mm 0.00 in0.0 mm
09:20 PM 38.7°F3.7°C 33.6°F0.9°C 82% Calm Calm -- 30.16 in1021.3 mb - 0.00 in0.0 mm 0.00 in0.0 mm
09:10 PM 39.1°F3.9°C 33.8°F1.0°C 81% Calm Calm -- 30.16 in1021.3 mb - 0.00 in0.0 mm 0.00 in0.0 mm
09:00 PM 39.5°F4.2°C 33.8°F1.0°C 80% 0.3 mph E0.5 kmh E -- 30.16 in1021.3 mb - 0.00 in0.0 mm 0.00 in0.0 mm
08:50 PM 39.8°F4.3°C 34.1°F1.2°C 80% 1.0 mph E1.6 kmh E 1.0 mph1.6 kmh 30.16 in1021.3 mb - 0.00 in0.0 mm 0.00 in0.0 mm
08:40 PM 40.4°F4.7°C 34.1°F1.2°C 78% Calm Calm -- 30.16 in1021.3 mb - 0.00 in0.0 mm 0.00 in0.0 mm
08:30 PM 41.0°F5.0°C 34.3°F1.3°C 77% Calm Calm -- 30.16 in1021.3 mb - 0.00 in0.0 mm 0.00 in0.0 mm
08:20 PM 41.5°F5.3°C 34.5°F1.4°C 76% 0.1 mph E0.2 kmh E -- 30.15 in1021.0 mb - 0.00 in0.0 mm 0.00 in0.0 mm
08:10 PM 42.3°F5.7°C 34.6°F1.4°C 74% 1.0 mph E1.6 kmh E 1.0 mph1.6 kmh 30.15 in1021.0 mb - 0.00 in0.0 mm 0.00 in0.0 mm
08:00 PM 43.5°F6.4°C 34.7°F1.5°C 71% Calm Calm -- 30.14 in1020.7 mb - 0.00 in0.0 mm 0.00 in0.0 mm
07:50 PM 44.7°F7.1°C 34.4°F1.3°C 67% Calm Calm -- 30.14 in1020.7 mb - 0.00 in0.0 mm 0.00 in0.0 mm
07:40 PM 45.7°F7.6°C 34.2°F1.2°C 64% Calm Calm -- 30.14 in1020.7 mb - 0.00 in0.0 mm 0.00 in0.0 mm
07:30 PM 46.3°F7.9°C 34.4°F1.3°C 63% 0.6 mph W1.0 kmh W 2.0 mph3.2 kmh 30.14 in1020.7 mb - 0.00 in0.0 mm 0.00 in0.0 mm
07:20 PM 47.0°F8.3°C 34.6°F1.4°C 62% 1.1 mph SW1.8 kmh SW 1.0 mph1.6 kmh 30.14 in1020.7 mb - 0.00 in0.0 mm 0.00 in0.0 mm
07:10 PM 47.5°F8.6°C 34.7°F1.5°C 61% 2.6 mph SW4.2 kmh SW 3.0 mph4.8 kmh 30.14 in1020.7 mb - 0.00 in0.0 mm 0.00 in0.0 mm
07:00 PM 48.0°F8.9°C 34.8°F1.6°C 60% 3.5 mph SW5.6 kmh SW 4.0 mph6.4 kmh 30.14 in1020.7 mb - 0.00 in0.0 mm 0.00 in0.0 mm
06:50 PM 48.6°F9.2°C 34.9°F1.6°C 59% 1.8 mph WNW2.9 kmh WNW 4.0 mph6.4 kmh 30.13 in1020.3 mb - 0.00 in0.0 mm 0.00 in0.0 mm
06:40 PM 48.8°F9.3°C 34.7°F1.5°C 58% 3.5 mph W5.6 kmh W 5.0 mph8.0 kmh 30.13 in1020.3 mb - 0.00 in0.0 mm 0.00 in0.0 mm
06:30 PM 48.9°F9.4°C 34.8°F1.6°C 58% 3.2 mph WSW5.1 kmh WSW 4.0 mph6.4 kmh 30.13 in1020.3 mb - 0.00 in0.0 mm 0.00 in0.0 mm
06:20 PM 49.1°F9.5°C 34.5°F1.4°C 57% 3.8 mph WSW6.1 kmh WSW 6.0 mph9.7 kmh 30.12 in1020.0 mb - 0.00 in0.0 mm 0.00 in0.0 mm
06:10 PM 49.2°F9.6°C 34.1°F1.2°C 56% 6.7 mph WNW10.8 kmh WNW 7.0 mph11.3 kmh 30.12 in1020.0 mb - 0.00 in0.0 mm 0.00 in0.0 mm
06:00 PM 49.4°F9.7°C 34.8°F1.6°C 57% 6.0 mph WSW9.7 kmh WSW 10.0 mph16.1 kmh 30.12 in1020.0 mb - 0.00 in0.0 mm 0.00 in0.0 mm
05:50 PM 49.4°F9.7°C 34.8°F1.6°C 57% 3.9 mph S6.3 kmh S 8.0 mph12.9 kmh 30.11 in1019.6 mb - 0.00 in0.0 mm 0.00 in0.0 mm
05:40 PM 49.3°F9.6°C 35.1°F1.7°C 58% 6.5 mph WSW10.5 kmh WSW 8.0 mph12.9 kmh 30.11 in1019.6 mb - 0.00 in0.0 mm 0.00 in0.0 mm
05:30 PM 49.7°F9.8°C 35.9°F2.2°C 59% 5.3 mph SW8.5 kmh SW 7.0 mph11.3 kmh 30.11 in1019.6 mb - 0.00 in0.0 mm 0.00 in0.0 mm
05:20 PM 49.4°F9.7°C 35.7°F2.1°C 59% 4.4 mph NW7.1 kmh NW 6.0 mph9.7 kmh 30.11 in1019.6 mb - 0.00 in0.0 mm 0.00 in0.0 mm
05:10 PM 49.9°F9.9°C 36.1°F2.3°C 59% 5.6 mph NNW9.0 kmh NNW 7.0 mph11.3 kmh 30.11 in1019.6 mb - 0.00 in0.0 mm 0.00 in0.0 mm
05:00 PM 49.7°F9.8°C 36.4°F2.4°C 60% 7.5 mph W12.1 kmh W 8.0 mph12.9 kmh 30.11 in1019.6 mb - 0.00 in0.0 mm 0.00 in0.0 mm
04:50 PM 49.3°F9.6°C 36.0°F2.2°C 60% 5.8 mph NW9.3 kmh NW 9.0 mph14.5 kmh 30.11 in1019.6 mb - 0.00 in0.0 mm 0.00 in0.0 mm
04:40 PM 49.4°F9.7°C 36.1°F2.3°C 60% 4.0 mph NW6.4 kmh NW 6.0 mph9.7 kmh 30.11 in1019.6 mb - 0.00 in0.0 mm 0.00 in0.0 mm
04:30 PM 50.1°F10.1°C 36.7°F2.6°C 60% 8.1 mph WNW13.0 kmh WNW 14.0 mph22.5 kmh 30.11 in1019.6 mb - 0.00 in0.0 mm 0.00 in0.0 mm
04:20 PM 50.8°F10.4°C 37.0°F2.8°C 59% 7.4 mph SW11.9 kmh SW 11.0 mph17.7 kmh 30.11 in1019.6 mb - 0.00 in0.0 mm 0.00 in0.0 mm
04:10 PM 50.2°F10.1°C 36.9°F2.7°C 60% 7.5 mph WSW12.1 kmh WSW 12.0 mph19.3 kmh 30.10 in1019.3 mb - 0.00 in0.0 mm 0.00 in0.0 mm
04:00 PM 49.6°F9.8°C 36.7°F2.6°C 61% 7.3 mph NW11.7 kmh NW 11.0 mph17.7 kmh 30.10 in1019.3 mb - 0.00 in0.0 mm 0.00 in0.0 mm
03:50 PM 50.4°F10.2°C 37.0°F2.8°C 60% 8.7 mph WSW14.0 kmh WSW 9.0 mph14.5 kmh 30.09 in1019.0 mb - 0.00 in0.0 mm 0.00 in0.0 mm
03:40 PM 50.6°F10.3°C 36.4°F2.4°C 58% 11.8 mph WSW19.0 kmh WSW 15.0 mph24.1 kmh 30.09 in1019.0 mb - 0.00 in0.0 mm 0.00 in0.0 mm
03:30 PM 50.3°F10.2°C 37.0°F2.8°C 60% 9.3 mph WNW15.0 kmh WNW 14.0 mph22.5 kmh 30.09 in1019.0 mb - 0.00 in0.0 mm 0.00 in0.0 mm
03:20 PM 49.9°F9.9°C 37.0°F2.8°C 61% 6.5 mph W10.5 kmh W 12.0 mph19.3 kmh 30.09 in1019.0 mb - 0.00 in0.0 mm 0.00 in0.0 mm
03:10 PM 49.7°F9.8°C 36.8°F2.7°C 61% 8.4 mph W13.5 kmh W 13.0 mph20.9 kmh 30.09 in1019.0 mb - 0.00 in0.0 mm 0.00 in0.0 mm
03:00 PM 49.5°F9.7°C 37.4°F3.0°C 63% 6.1 mph SW9.8 kmh SW 9.0 mph14.5 kmh 30.08 in1018.6 mb - 0.00 in0.0 mm 0.00 in0.0 mm
02:50 PM 49.8°F9.9°C 38.5°F3.6°C 65% 9.1 mph W14.6 kmh W 14.0 mph22.5 kmh 30.08 in1018.6 mb - 0.00 in0.0 mm 0.00 in0.0 mm
02:40 PM 50.1°F10.1°C 38.0°F3.3°C 63% 8.9 mph W14.3 kmh W 14.0 mph22.5 kmh 30.08 in1018.6 mb - 0.00 in0.0 mm 0.00 in0.0 mm
02:30 PM 50.6°F10.3°C 38.1°F3.4°C 62% 11.1 mph WSW17.9 kmh WSW 18.0 mph29.0 kmh 30.08 in1018.6 mb - 0.00 in0.0 mm 0.00 in0.0 mm
02:20 PM 50.0°F10.0°C 38.3°F3.5°C 64% 8.5 mph WSW13.7 kmh WSW 11.0 mph17.7 kmh 30.07 in1018.3 mb - 0.00 in0.0 mm 0.00 in0.0 mm
02:10 PM 49.6°F9.8°C 38.7°F3.7°C 66% 10.2 mph WNW16.4 kmh WNW 11.0 mph17.7 kmh 30.07 in1018.3 mb - 0.00 in0.0 mm 0.00 in0.0 mm
02:00 PM 49.3°F9.6°C 39.6°F4.2°C 69% 8.8 mph WSW14.2 kmh WSW 12.0 mph19.3 kmh 30.07 in1018.3 mb - 0.00 in0.0 mm 0.00 in0.0 mm
01:50 PM 49.5°F9.7°C 39.4°F4.1°C 68% 8.8 mph SSW14.2 kmh SSW 12.0 mph19.3 kmh 30.07 in1018.3 mb - 0.00 in0.0 mm 0.00 in0.0 mm
01:40 PM 49.2°F9.6°C 39.8°F4.3°C 70% 9.4 mph W15.1 kmh W 13.0 mph20.9 kmh 30.06 in1017.9 mb - 0.00 in0.0 mm 0.00 in0.0 mm
01:30 PM 48.3°F9.1°C 40.1°F4.5°C 73% 8.7 mph SW14.0 kmh SW 10.0 mph16.1 kmh 30.07 in1018.3 mb - 0.00 in0.0 mm 0.00 in0.0 mm
01:20 PM 48.1°F8.9°C 39.9°F4.4°C 73% 4.7 mph W7.6 kmh W 7.0 mph11.3 kmh 30.07 in1018.3 mb - 0.00 in0.0 mm 0.00 in0.0 mm
01:10 PM 48.1°F8.9°C 40.5°F4.7°C 75% 10.7 mph SW17.2 kmh SW 15.0 mph24.1 kmh 30.07 in1018.3 mb - 0.00 in0.0 mm 0.00 in0.0 mm
01:00 PM 47.5°F8.6°C 39.2°F4.0°C 73% 7.5 mph W12.1 kmh W 10.0 mph16.1 kmh 30.07 in1018.3 mb - 0.00 in0.0 mm 0.00 in0.0 mm
12:50 PM 47.2°F8.4°C 39.3°F4.1°C 74% 8.7 mph SSE14.0 kmh SSE 11.0 mph17.7 kmh 30.07 in1018.3 mb - 0.00 in0.0 mm 0.00 in0.0 mm
12:40 PM 46.9°F8.3°C 39.0°F3.9°C 74% 7.3 mph WSW11.7 kmh WSW 10.0 mph16.1 kmh 30.06 in1017.9 mb - 0.00 in0.0 mm 0.00 in0.0 mm
12:30 PM 46.8°F8.2°C 38.6°F3.7°C 73% 11.4 mph WSW18.3 kmh WSW 14.0 mph22.5 kmh 30.06 in1017.9 mb - 0.00 in0.0 mm 0.00 in0.0 mm
12:20 PM 46.8°F8.2°C 38.9°F3.8°C 74% 8.7 mph W14.0 kmh W 12.0 mph19.3 kmh 30.06 in1017.9 mb - 0.00 in0.0 mm 0.00 in0.0 mm
12:10 PM 47.1°F8.4°C 38.9°F3.8°C 73% 10.1 mph NW16.3 kmh NW 13.0 mph20.9 kmh 30.06 in1017.9 mb - 0.00 in0.0 mm 0.00 in0.0 mm
12:00 PM 46.8°F8.2°C 39.2°F4.0°C 75% 8.1 mph W13.0 kmh W 10.0 mph16.1 kmh 30.05 in1017.6 mb - 0.00 in0.0 mm 0.00 in0.0 mm
11:50 AM 46.4°F8.0°C 38.9°F3.8°C 75% 9.3 mph NW15.0 kmh NW 14.0 mph22.5 kmh 30.06 in1017.9 mb - 0.00 in0.0 mm 0.00 in0.0 mm
11:40 AM 46.6°F8.1°C 39.1°F3.9°C 75% 10.2 mph SW16.4 kmh SW 13.0 mph20.9 kmh 30.06 in1017.9 mb - 0.00 in0.0 mm 0.00 in0.0 mm
11:30 AM 46.7°F8.2°C 39.6°F4.2°C 76% 7.5 mph WSW12.1 kmh WSW 13.0 mph20.9 kmh 30.05 in1017.6 mb - 0.00 in0.0 mm 0.00 in0.0 mm
11:20 AM 46.8°F8.2°C 39.3°F4.1°C 75% 6.7 mph SW10.8 kmh SW 11.0 mph17.7 kmh 30.05 in1017.6 mb - 0.00 in0.0 mm 0.00 in0.0 mm
11:10 AM 46.7°F8.2°C 39.5°F4.2°C 76% 7.6 mph WSW12.2 kmh WSW 11.0 mph17.7 kmh 30.05 in1017.6 mb - 0.00 in0.0 mm 0.00 in0.0 mm
11:00 AM 46.8°F8.2°C 39.6°F4.2°C 76% 5.6 mph SW9.0 kmh SW 6.0 mph9.7 kmh 30.04 in1017.3 mb - 0.00 in0.0 mm 0.00 in0.0 mm
10:50 AM 46.1°F7.8°C 39.3°F4.1°C 77% 8.9 mph WNW14.3 kmh WNW 10.0 mph16.1 kmh 30.04 in1017.3 mb - 0.00 in0.0 mm 0.00 in0.0 mm
10:40 AM 46.9°F8.3°C 39.7°F4.3°C 76% 7.3 mph NW11.7 kmh NW 12.0 mph19.3 kmh 30.04 in1017.3 mb - 0.00 in0.0 mm 0.00 in0.0 mm
10:30 AM 45.9°F7.7°C 39.4°F4.1°C 78% 6.5 mph W10.5 kmh W 9.0 mph14.5 kmh 30.03 in1016.9 mb - 0.00 in0.0 mm 0.00 in0.0 mm
10:20 AM 45.4°F7.4°C 39.6°F4.2°C 80% 6.7 mph SW10.8 kmh SW 9.0 mph14.5 kmh 30.03 in1016.9 mb - 0.00 in0.0 mm 0.00 in0.0 mm
10:10 AM 44.9°F7.2°C 38.8°F3.8°C 79% 11.2 mph W18.0 kmh W 12.0 mph19.3 kmh 30.03 in1016.9 mb - 0.00 in0.0 mm 0.00 in0.0 mm
10:00 AM 44.9°F7.2°C 39.1°F3.9°C 80% 8.1 mph WSW13.0 kmh WSW 13.0 mph20.9 kmh 30.02 in1016.6 mb - 0.00 in0.0 mm 0.00 in0.0 mm
09:50 AM 44.9°F7.2°C 39.1°F3.9°C 80% 9.5 mph WNW15.3 kmh WNW 11.0 mph17.7 kmh 30.02 in1016.6 mb - 0.00 in0.0 mm 0.00 in0.0 mm
09:40 AM 44.3°F6.8°C 39.2°F4.0°C 82% 4.8 mph SW7.7 kmh SW 8.0 mph12.9 kmh 30.02 in1016.6 mb - 0.00 in0.0 mm 0.00 in0.0 mm
09:30 AM 43.8°F6.6°C 38.9°F3.8°C 83% 5.5 mph WNW8.9 kmh WNW 10.0 mph16.1 kmh 30.02 in1016.6 mb - 0.00 in0.0 mm 0.00 in0.0 mm
09:20 AM 43.4°F6.3°C 38.3°F3.5°C 82% 8.3 mph WSW13.4 kmh WSW 11.0 mph17.7 kmh 30.01 in1016.3 mb - 0.00 in0.0 mm 0.00 in0.0 mm
09:10 AM 43.5°F6.4°C 38.4°F3.6°C 82% 7.4 mph W11.9 kmh W 10.0 mph16.1 kmh 30.01 in1016.3 mb - 0.00 in0.0 mm 0.00 in0.0 mm
09:00 AM 43.2°F6.2°C 38.4°F3.6°C 83% 8.4 mph W13.5 kmh W 12.0 mph19.3 kmh 30.01 in1016.3 mb - 0.00 in0.0 mm 0.00 in0.0 mm
08:50 AM 42.7°F5.9°C 38.2°F3.4°C 84% 8.0 mph WSW12.9 kmh WSW 11.0 mph17.7 kmh 30.00 in1015.9 mb - 0.00 in0.0 mm 0.00 in0.0 mm
08:40 AM 42.4°F5.8°C 37.6°F3.1°C 83% 8.6 mph W13.8 kmh W 11.0 mph17.7 kmh 30.00 in1015.9 mb - 0.00 in0.0 mm 0.00 in0.0 mm
08:30 AM 42.3°F5.7°C 38.1°F3.4°C 85% 4.7 mph SW7.6 kmh SW 10.0 mph16.1 kmh 30.00 in1015.9 mb - 0.00 in0.0 mm 0.00 in0.0 mm
08:20 AM 41.9°F5.5°C 37.4°F3.0°C 84% 6.3 mph SW10.1 kmh SW 9.0 mph14.5 kmh 30.00 in1015.9 mb - 0.00 in0.0 mm 0.00 in0.0 mm
08:10 AM 41.8°F5.4°C 37.6°F3.1°C 85% 6.7 mph WSW10.8 kmh WSW 9.0 mph14.5 kmh 29.99 in1015.6 mb - 0.00 in0.0 mm 0.00 in0.0 mm
08:00 AM 41.5°F5.3°C 37.6°F3.1°C 86% 6.3 mph SW10.1 kmh SW 13.0 mph20.9 kmh 29.99 in1015.6 mb - 0.00 in0.0 mm 0.00 in0.0 mm
07:50 AM 41.1°F5.1°C 37.2°F2.9°C 86% 8.0 mph WSW12.9 kmh WSW 10.0 mph16.1 kmh 29.99 in1015.6 mb - 0.00 in0.0 mm 0.00 in0.0 mm
07:40 AM 40.9°F4.9°C 37.0°F2.8°C 86% 4.5 mph SSW7.2 kmh SSW 6.0 mph9.7 kmh 29.98 in1015.2 mb - 0.00 in0.0 mm 0.00 in0.0 mm
07:30 AM 41.0°F5.0°C 37.1°F2.8°C 86% 6.8 mph SW10.9 kmh SW 8.0 mph12.9 kmh 29.97 in1014.9 mb - 0.00 in0.0 mm 0.00 in0.0 mm
07:20 AM 41.0°F5.0°C 37.4°F3.0°C 87% 7.5 mph SW12.1 kmh SW 9.0 mph14.5 kmh 29.97 in1014.9 mb - 0.00 in0.0 mm 0.00 in0.0 mm
07:10 AM 40.9°F4.9°C 37.0°F2.8°C 86% 5.2 mph SW8.4 kmh SW 7.0 mph11.3 kmh 29.96 in1014.6 mb - 0.00 in0.0 mm 0.00 in0.0 mm
07:00 AM 40.8°F4.9°C 36.9°F2.7°C 86% 6.3 mph WSW10.1 kmh WSW 10.0 mph16.1 kmh 29.96 in1014.6 mb - 0.00 in0.0 mm 0.00 in0.0 mm
06:50 AM 40.8°F4.9°C 36.9°F2.7°C 86% 6.0 mph W9.7 kmh W 8.0 mph12.9 kmh 29.95 in1014.2 mb - 0.00 in0.0 mm 0.00 in0.0 mm
06:40 AM 40.7°F4.8°C 37.1°F2.8°C 87% 5.8 mph SW9.3 kmh SW 8.0 mph12.9 kmh 29.95 in1014.2 mb - 0.00 in0.0 mm 0.00 in0.0 mm
06:30 AM 40.6°F4.8°C 37.0°F2.8°C 87% 6.2 mph SW10.0 kmh SW 8.0 mph12.9 kmh 29.94 in1013.9 mb - 0.00 in0.0 mm 0.00 in0.0 mm
06:20 AM 40.4°F4.7°C 36.8°F2.7°C 87% 5.3 mph WSW8.5 kmh WSW 10.0 mph16.1 kmh 29.94 in1013.9 mb - 0.00 in0.0 mm 0.00 in0.0 mm
06:10 AM 40.2°F4.6°C 36.7°F2.6°C 87% 5.2 mph SW8.4 kmh SW 9.0 mph14.5 kmh 29.93 in1013.5 mb - 0.00 in0.0 mm 0.00 in0.0 mm
06:00 AM 40.2°F4.6°C 36.6°F2.6°C 87% 6.0 mph SSW9.7 kmh SSW 9.0 mph14.5 kmh 29.92 in1013.2 mb - 0.00 in0.0 mm 0.00 in0.0 mm
05:50 AM 40.1°F4.5°C 36.5°F2.5°C 87% 8.3 mph SW13.4 kmh SW 10.0 mph16.1 kmh 29.92 in1013.2 mb - 0.00 in0.0 mm 0.00 in0.0 mm
05:40 AM 39.9°F4.4°C 36.3°F2.4°C 87% 6.9 mph SW11.1 kmh SW 10.0 mph16.1 kmh 29.91 in1012.9 mb - 0.00 in0.0 mm 0.00 in0.0 mm
05:30 AM 39.9°F4.4°C 36.3°F2.4°C 87% 5.0 mph WSW8.0 kmh WSW 7.0 mph11.3 kmh 29.91 in1012.9 mb - 0.00 in0.0 mm 0.00 in0.0 mm
05:20 AM 40.0°F4.4°C 36.1°F2.3°C 86% 5.3 mph SW8.5 kmh SW 7.0 mph11.3 kmh 29.91 in1012.9 mb - 0.00 in0.0 mm 0.00 in0.0 mm
05:10 AM 40.0°F4.4°C 36.2°F2.3°C 86% 5.7 mph SW9.2 kmh SW 8.0 mph12.9 kmh 29.91 in1012.9 mb - 0.00 in0.0 mm 0.00 in0.0 mm
05:00 AM 40.0°F4.4°C 36.1°F2.3°C 86% 3.7 mph SW6.0 kmh SW 5.0 mph8.0 kmh 29.90 in1012.5 mb - 0.00 in0.0 mm 0.00 in0.0 mm
04:50 AM 39.7°F4.3°C 35.8°F2.1°C 86% 3.8 mph WSW6.1 kmh WSW 5.0 mph8.0 kmh 29.90 in1012.5 mb - 0.00 in0.0 mm 0.00 in0.0 mm
04:40 AM 39.6°F4.2°C 35.8°F2.1°C 86% 4.1 mph SW6.6 kmh SW 6.0 mph9.7 kmh 29.89 in1012.2 mb - 0.00 in0.0 mm 0.00 in0.0 mm
04:30 AM 39.6°F4.2°C 35.4°F1.9°C 85% 3.5 mph WSW5.6 kmh WSW 7.0 mph11.3 kmh 29.89 in1012.2 mb - 0.00 in0.0 mm 0.00 in0.0 mm
04:20 AM 39.7°F4.3°C 35.6°F2.0°C 85% 4.5 mph WSW7.2 kmh WSW 6.0 mph9.7 kmh 29.89 in1012.2 mb - 0.00 in0.0 mm 0.00 in0.0 mm
04:10 AM 39.8°F4.3°C 35.7°F2.1°C 85% 4.6 mph SW7.4 kmh SW 7.0 mph11.3 kmh 29.89 in1012.2 mb - 0.00 in0.0 mm 0.00 in0.0 mm
04:00 AM 39.9°F4.4°C 35.8°F2.1°C 85% 5.4 mph SW8.7 kmh SW 6.0 mph9.7 kmh 29.88 in1011.9 mb - 0.00 in0.0 mm 0.00 in0.0 mm
03:50 AM 40.0°F4.4°C 35.9°F2.2°C 85% 4.3 mph SW6.9 kmh SW 7.0 mph11.3 kmh 29.88 in1011.9 mb - 0.00 in0.0 mm 0.00 in0.0 mm
03:40 AM 40.0°F4.4°C 35.9°F2.2°C 85% 4.2 mph SW6.8 kmh SW 5.0 mph8.0 kmh 29.88 in1011.9 mb - 0.00 in0.0 mm 0.00 in0.0 mm
03:30 AM 40.3°F4.6°C 35.8°F2.1°C 84% 4.5 mph SW7.2 kmh SW 5.0 mph8.0 kmh 29.87 in1011.5 mb - 0.00 in0.0 mm 0.00 in0.0 mm
03:20 AM 40.6°F4.8°C 36.2°F2.3°C 84% 6.3 mph WSW10.1 kmh WSW 8.0 mph12.9 kmh 29.87 in1011.5 mb - 0.00 in0.0 mm 0.00 in0.0 mm
03:10 AM 40.7°F4.8°C 36.2°F2.3°C 84% 4.4 mph SW7.1 kmh SW 7.0 mph11.3 kmh 29.86 in1011.2 mb - 0.00 in0.0 mm 0.00 in0.0 mm
03:00 AM 40.7°F4.8°C 36.3°F2.4°C 84% 5.3 mph SW8.5 kmh SW 7.0 mph11.3 kmh 29.86 in1011.2 mb - 0.00 in0.0 mm 0.00 in0.0 mm
02:50 AM 40.7°F4.8°C 36.2°F2.3°C 84% 5.5 mph SW8.9 kmh SW 9.0 mph14.5 kmh 29.86 in1011.2 mb - 0.00 in0.0 mm 0.00 in0.0 mm
02:40 AM 40.6°F4.8°C 36.1°F2.3°C 84% 5.3 mph SW8.5 kmh SW 7.0 mph11.3 kmh 29.85 in1010.8 mb - 0.00 in0.0 mm 0.00 in0.0 mm
02:30 AM 40.7°F4.8°C 36.3°F2.4°C 84% 5.4 mph SW8.7 kmh SW 7.0 mph11.3 kmh 29.85 in1010.8 mb - 0.00 in0.0 mm 0.00 in0.0 mm
02:20 AM 41.0°F5.0°C 36.2°F2.3°C 83% 4.9 mph WSW7.9 kmh WSW 6.0 mph9.7 kmh 29.85 in1010.8 mb - 0.00 in0.0 mm 0.00 in0.0 mm
02:10 AM 41.2°F5.1°C 36.5°F2.5°C 83% 3.9 mph SW6.3 kmh SW 5.0 mph8.0 kmh 29.84 in1010.5 mb - 0.00 in0.0 mm 0.00 in0.0 mm
02:00 AM 41.2°F5.1°C 36.7°F2.6°C 84% 4.9 mph SW7.9 kmh SW 6.0 mph9.7 kmh 29.84 in1010.5 mb - 0.00 in0.0 mm 0.00 in0.0 mm
01:50 AM 41.2°F5.1°C 36.7°F2.6°C 84% 4.6 mph SW7.4 kmh SW 6.0 mph9.7 kmh 29.84 in1010.5 mb - 0.00 in0.0 mm 0.00 in0.0 mm
01:40 AM 41.4°F5.2°C 36.6°F2.6°C 83% 4.6 mph SW7.4 kmh SW 6.0 mph9.7 kmh 29.84 in1010.5 mb - 0.00 in0.0 mm 0.00 in0.0 mm
01:30 AM 41.6°F5.3°C 36.8°F2.7°C 83% 4.6 mph SW7.4 kmh SW 7.0 mph11.3 kmh 29.84 in1010.5 mb - 0.00 in0.0 mm 0.00 in0.0 mm
01:20 AM 41.5°F5.3°C 37.0°F2.8°C 84% 3.6 mph WSW5.8 kmh WSW 5.0 mph8.0 kmh 29.83 in1010.2 mb - 0.00 in0.0 mm 0.00 in0.0 mm
01:10 AM 41.6°F5.3°C 37.1°F2.8°C 84% 2.8 mph W4.5 kmh W 4.0 mph6.4 kmh 29.83 in1010.2 mb - 0.00 in0.0 mm 0.00 in0.0 mm
01:00 AM 41.7°F5.4°C 37.2°F2.9°C 84% 4.9 mph WSW7.9 kmh WSW 6.0 mph9.7 kmh 29.82 in1009.8 mb - 0.00 in0.0 mm 0.00 in0.0 mm
12:50 AM 41.8°F5.4°C 37.3°F2.9°C 84% 4.7 mph SW7.6 kmh SW 6.0 mph9.7 kmh 29.82 in1009.8 mb - 0.00 in0.0 mm 0.00 in0.0 mm
12:40 AM 42.3°F5.7°C 37.5°F3.1°C 83% 3.5 mph WSW5.6 kmh WSW 4.0 mph6.4 kmh 29.81 in1009.5 mb - 0.00 in0.0 mm 0.00 in0.0 mm
12:30 AM 42.1°F5.6°C 37.3°F2.9°C 83% 5.0 mph W8.0 kmh W 10.0 mph16.1 kmh 29.81 in1009.5 mb - 0.00 in0.0 mm 0.00 in0.0 mm
12:20 AM 42.8°F6.0°C 37.4°F3.0°C 81% 6.3 mph SW10.1 kmh SW 7.0 mph11.3 kmh 29.81 in1009.5 mb - 0.00 in0.0 mm 0.00 in0.0 mm
12:10 AM 43.2°F6.2°C 37.7°F3.2°C 81% 3.8 mph SW6.1 kmh SW 4.0 mph6.4 kmh 29.80 in1009.1 mb - 0.00 in0.0 mm 0.00 in0.0 mm
12:00 AM 42.9°F6.1°C 38.1°F3.4°C 83% 5.5 mph WNW8.9 kmh WNW 7.0 mph11.3 kmh 29.80 in1009.1 mb - 0.00 in0.0 mm 0.00 in0.0 mm